createdAt,value
2022-08-05T00:01:28.535Z,50.74
2022-08-05T00:04:02.750Z,50.71
2022-08-05T00:06:44.657Z,50.75
2022-08-05T00:09:36.948Z,50.83
2022-08-05T00:12:13.148Z,50.88
2022-08-05T00:14:45.836Z,50.85
2022-08-05T00:17:23.070Z,50.83
2022-08-05T00:20:03.139Z,50.94
2022-08-05T00:22:36.164Z,50.98
2022-08-05T00:27:59.574Z,51.08
2022-08-05T00:30:32.156Z,51.16
2022-08-05T00:33:02.920Z,51.18
2022-08-05T00:35:34.153Z,51.31
2022-08-05T00:38:28.744Z,51.37
2022-08-05T00:41:12.634Z,51.47
2022-08-05T00:46:36.926Z,51.60
2022-08-05T00:49:26.495Z,51.66
2022-08-05T00:52:11.607Z,51.70
2022-08-05T00:54:52.337Z,51.67
2022-08-05T00:57:38.292Z,51.84
2022-08-05T01:00:22.018Z,51.88
2022-08-05T01:03:02.240Z,51.91
2022-08-05T01:05:45.796Z,51.96
2022-08-05T01:08:41.410Z,52.03
2022-08-05T01:11:13.496Z,52.08
2022-08-05T01:14:28.251Z,52.23
2022-08-05T01:17:16.375Z,52.34
2022-08-05T01:20:01.023Z,52.38
2022-08-05T01:23:14.322Z,52.49
2022-08-05T01:26:04.294Z,52.64
2022-08-05T01:28:49.166Z,52.77
2022-08-05T01:32:00.360Z,52.73
2022-08-05T01:34:39.348Z,52.84
2022-08-05T01:37:25.222Z,52.98
2022-08-05T01:40:03.045Z,53.03
2022-08-05T01:42:34.043Z,53.08
2022-08-05T01:45:09.965Z,53.09
2022-08-05T01:47:43.187Z,53.14
2022-08-05T01:50:18.163Z,53.24
2022-08-05T01:52:59.435Z,53.17
2022-08-05T01:55:36.501Z,53.37
2022-08-05T01:58:15.809Z,53.38
2022-08-05T02:00:55.886Z,53.39
2022-08-05T02:03:34.071Z,53.43
2022-08-05T02:06:33.191Z,53.54
2022-08-05T02:09:00.485Z,53.62
2022-08-05T02:11:37.743Z,53.63
2022-08-05T02:14:24.913Z,53.67
2022-08-05T02:17:04.657Z,53.62
2022-08-05T02:19:46.929Z,53.82
2022-08-05T02:22:41.834Z,53.84
2022-08-05T02:25:18.073Z,54.00
2022-08-05T02:27:59.332Z,54.12
2022-08-05T02:30:38.678Z,54.18
2022-08-05T02:33:35.964Z,54.28
2022-08-05T02:36:15.550Z,54.38
2022-08-05T02:38:52.897Z,54.62
2022-08-05T02:41:28.651Z,54.63
2022-08-05T02:44:17.470Z,54.84
2022-08-05T02:46:59.928Z,54.93
2022-08-05T02:49:36.879Z,55.07
2022-08-05T02:52:11.533Z,55.21
2022-08-05T02:54:50.727Z,55.34
2022-08-05T02:58:10.418Z,55.34
2022-08-05T03:00:14.555Z,55.52
2022-08-05T03:02:45.182Z,55.68
2022-08-05T03:05:15.441Z,55.65
2022-08-05T03:08:06.911Z,55.82
2022-08-05T03:11:55.742Z,55.95
2022-08-05T03:13:51.838Z,55.99
2022-08-05T03:16:28.212Z,56.14
2022-08-05T03:18:56.591Z,56.24
2022-08-05T03:21:29.185Z,56.21
2022-08-05T03:24:15.092Z,56.49
2022-08-05T03:26:43.641Z,56.49
2022-08-05T03:29:19.114Z,56.55
2022-08-05T03:31:56.488Z,56.65
2022-08-05T03:34:28.032Z,56.74
2022-08-05T03:36:58.966Z,56.88
2022-08-05T03:39:27.776Z,56.86
2022-08-05T03:42:02.279Z,56.99
2022-08-05T03:44:30.908Z,57.00
2022-08-05T03:47:01.452Z,57.13
2022-08-05T03:49:51.121Z,57.18
2022-08-05T03:52:37.866Z,57.19
2022-08-05T03:56:05.845Z,57.33
2022-08-05T03:58:43.153Z,57.39
2022-08-05T04:01:20.984Z,57.47
2022-08-05T04:04:05.395Z,57.47
2022-08-05T04:06:47.862Z,57.60
2022-08-05T04:09:26.299Z,57.59
2022-08-05T04:12:03.294Z,57.69
2022-08-05T04:14:58.938Z,57.77
2022-08-05T04:17:56.581Z,57.83
2022-08-05T04:20:28.060Z,57.85
2022-08-05T04:22:58.070Z,57.84
2022-08-05T04:25:56.543Z,57.85
2022-08-05T04:28:17.207Z,58.09
2022-08-05T04:30:47.013Z,57.99
2022-08-05T04:33:18.140Z,57.95
2022-08-05T04:36:38.616Z,58.11
2022-08-05T04:39:02.490Z,58.02
2022-08-05T04:41:37.774Z,58.10
2022-08-05T04:44:09.498Z,58.08
2022-08-05T04:46:43.547Z,58.07
2022-08-05T04:49:16.009Z,58.20
2022-08-05T04:52:00.235Z,58.06
2022-08-05T04:54:27.719Z,58.21
2022-08-05T04:56:59.677Z,58.12
2022-08-05T04:59:38.628Z,58.14
2022-08-05T05:02:36.620Z,58.16
2022-08-05T05:05:02.288Z,58.01
2022-08-05T05:07:36.024Z,57.96
2022-08-05T05:10:11.456Z,57.91
2022-08-05T05:12:45.961Z,57.84
2022-08-05T05:15:54.250Z,57.89
2022-08-05T05:18:31.506Z,57.72
2022-08-05T05:21:05.553Z,57.54
2022-08-05T05:24:01.937Z,57.70
2022-08-05T05:26:28.611Z,57.70
2022-08-05T05:29:02.360Z,57.49
2022-08-05T05:34:03.136Z,57.44
2022-08-05T05:36:35.415Z,57.36
2022-08-05T05:39:10.916Z,57.30
2022-08-05T05:41:41.959Z,57.15
2022-08-05T05:44:35.680Z,57.02
2022-08-05T05:47:22.065Z,57.03
2022-08-05T05:50:01.760Z,56.87
2022-08-05T05:52:40.540Z,56.64
2022-08-05T05:55:13.943Z,56.65
2022-08-05T05:57:52.773Z,56.72
2022-08-05T06:00:34.061Z,56.58
2022-08-05T06:03:40.210Z,56.49
2022-08-05T06:06:08.756Z,56.41
2022-08-05T06:08:36.483Z,56.20
2022-08-05T06:11:13.452Z,56.07
2022-08-05T06:13:50.656Z,55.87
2022-08-05T06:16:28.431Z,55.79
2022-08-05T06:19:09.808Z,55.75
2022-08-05T06:24:35.082Z,55.46
2022-08-05T06:27:17.316Z,55.17
2022-08-05T06:30:17.707Z,55.24
2022-08-05T06:32:54.198Z,54.85
2022-08-05T06:36:07.802Z,54.75
2022-08-05T06:38:17.290Z,54.65
2022-08-05T06:41:26.974Z,54.66
2022-08-05T06:44:00.608Z,54.45
2022-08-05T06:46:50.777Z,54.17
2022-08-05T06:50:00.406Z,54.25
2022-08-05T06:52:36.876Z,53.95
2022-08-05T06:55:11.863Z,53.84
2022-08-05T06:58:02.558Z,53.97
2022-08-05T07:00:35.884Z,53.74
2022-08-05T07:03:11.006Z,53.31
2022-08-05T07:05:41.596Z,53.08
2022-08-05T07:08:11.272Z,53.12
2022-08-05T07:10:53.279Z,52.95
2022-08-05T07:13:58.357Z,52.96
2022-08-05T07:18:00.225Z,52.58
2022-08-05T07:26:07.235Z,52.15
2022-08-05T07:31:53.914Z,52.01
2022-08-05T07:34:28.703Z,51.90
2022-08-05T07:36:57.737Z,51.77
2022-08-05T07:40:26.131Z,51.57
2022-08-05T07:42:33.557Z,51.64
2022-08-05T07:45:11.462Z,51.43
2022-08-05T07:47:44.462Z,51.28
2022-08-05T07:50:16.459Z,51.03
2022-08-05T07:52:52.630Z,50.89
2022-08-05T07:55:44.335Z,50.80
2022-08-05T07:58:58.616Z,50.53
2022-08-05T08:01:17.198Z,50.32
2022-08-05T08:04:22.970Z,50.34
2022-08-05T08:07:17.706Z,49.70
2022-08-05T08:13:11.570Z,49.09
2022-08-05T08:16:35.596Z,48.73
2022-08-05T08:20:22.899Z,48.51
2022-08-05T08:22:52.989Z,48.67
2022-08-05T08:25:59.299Z,48.74
2022-08-05T08:28:59.035Z,48.50
2022-08-05T08:35:03.275Z,47.33
2022-08-05T08:37:45.093Z,47.09
2022-08-05T08:40:35.852Z,46.83
2022-08-05T08:45:17.974Z,46.53
2022-08-05T08:46:47.580Z,46.61
2022-08-05T08:56:05.583Z,45.94
2022-08-05T09:02:21.920Z,45.21
2022-08-05T09:08:09.849Z,44.81
2022-08-05T09:10:53.581Z,44.94
2022-08-05T09:16:59.217Z,43.90
2022-08-05T09:20:01.810Z,44.35
2022-08-05T09:23:43.474Z,43.78
2022-08-05T09:26:45.199Z,43.45
2022-08-05T09:30:06.051Z,42.74
2022-08-05T09:32:49.100Z,42.57
2022-08-05T09:36:16.650Z,41.99
2022-08-05T09:39:45.566Z,41.84
2022-08-05T09:42:44.111Z,41.59
2022-08-05T09:46:06.828Z,41.02
2022-08-05T09:49:07.077Z,40.80
2022-08-05T09:52:35.186Z,40.77
2022-08-05T09:55:56.621Z,40.23
2022-08-05T09:59:06.414Z,39.74
2022-08-05T10:02:03.188Z,39.10
2022-08-05T10:11:31.330Z,38.53
2022-08-05T10:17:47.069Z,38.47
2022-08-05T10:20:38.506Z,38.29
2022-08-05T10:23:34.602Z,37.93
2022-08-05T10:32:54.860Z,37.71
2022-08-05T10:40:03.138Z,36.79
2022-08-05T10:42:52.752Z,37.03
2022-08-05T10:56:28.005Z,36.86
2022-08-05T11:03:26.963Z,36.37
2022-08-05T11:25:01.603Z,35.27
2022-08-05T11:31:54.183Z,35.16
